Midland International Airport
KMAF : now visible

Airfield :











YOU CAN JOIN US ON...

 
LOGIN :

Register | Disclaimer

   EN    FR    IT 

 









Legend :    VFR   Marginal VFR   IFR   Intensive IFR   Very Intensive IFR
Visi :
Ceiling :
>= 8 km
>= 3000ft
5 to 8 km
1000 to 3000 ft
1500m to 5 km
500 to 1000 ft
800 to 1500m
200 to 500 ft
< 800m
< 200 ft
Symbols :   Thunderstorms  Fog  Heavy snow  Heavy precipitations  Wind > 20 kt






- Airport Elevation : 2871 ft
- IATA code : MAF


KMAF - Midland International

CURRENT METAR :
  • 080633Z AUTO 35012KT 10SM SCT027 BKN034 OVC060 06/M02 A3016 RMK AO2 T00561022

EXPIRED METARs :
  • 080553Z AUTO 35008KT 10SM OVC026 06/M01 A3018 RMK AO2 SLP209 T00561011 10056 20050 401390050 56003
  • 080453Z 03011G21KT 10SM OVC023 06/M01 A3018 RMK AO2 SLP209 T00561011
  • 080353Z 02012KT 10SM OVC020 06/02 A3017 RMK AO2 SLP207 T00560017

TAF KMAF
Valid from the 08 at 06:00 until the 09 at 06:00 UTC


080520Z 0806/0906 02011KT P6SM OVC020
FM080800 01010KT P6SM BKN030 OVC100
FM081300 32008KT P6SM BKN200
KZFW FIR / North America



MET'MAP, your aeronautical weather chart ! - Copyright ORBIFLY December 2007 - Disclaimer

ORBIFLY MET'MAP TEAM :

Programming & Development : Alexandra Zaïnal
Original concept : Baudouin d'Aumeries
Technical & hardware support : Manuel Goepfert
Assistance : Marc-Olivier Méhu




SOURCES & CREDITS :

   NOAA       Earth
Advisory